EGBJ/GLO METAR and TAF weather

Enter ICAO airport designator
Station Type Date Time Source
EGBJ METAR 2019/06/16 07:20 UTC NOAA

EGBJ 160720Z 19009KT 150V210 9999 VCSH FEW009 SCT020 14/12 Q1013


Station Type Date Time Source
EGBJ Decoded METAR 2019/06/16 07:20 UTC NOAA

Staverton Private , United Kingdom (EGBJ) 51-54N 002-10W
Jun 16, 2019 - 03:20 AM EDT / 2019.06.16 0720 UTC
Wind: from the S (190 degrees) at 10 MPH (9 KT) (direction variable):0
Visibility: greater than 7 mile(s):0
Sky conditions: partly cloudy
Weather: showers in the vicinity
Temperature: 57 F (14 C)
Dew Point: 53 F (12 C)
Relative Humidity: 87%
Pressure (altimeter): 29.91 in. Hg (1013 hPa)
ob: EGBJ 160720Z 19009KT 150V210 9999 VCSH FEW009 SCT020 14/12 Q1013
cycle: 7

Station Type Date Time Source
EGBJ TAF UTC NOAA

Error!

Example: see airport list